JJP335 RJAA-ROAH
Flight info
| Callsign | JJP335 |
|---|---|
| Flight time | 2h 47m |
| Altitude | 36000 |
| Route | SAMUS Y84 HCE Y86 YULIA Y293 TONAR Y525 IHEYA |
| Aircraft | A320/M-SDE3FGHIRWY/LB1 |
Departure
| Time | 2026-04-15 21:11 |
|---|---|
| Airport | Narita International Airport (RJAA) |
Arrival
| Time | 2026-04-15 23:59 |
|---|---|
| Airport | Naha International Airport (ROAH) |
| Time | Latitude | Longitude | Altitude | Speed | Heading |
|---|---|---|---|---|---|
| 2026-04-15 20:34 | 35.77872 | 140.38830 | 144 ft | 0 kts | 329° |
| 2026-04-15 20:50 | 35.77854 | 140.38844 | 143 ft | 4 kts | 326° |
| 2026-04-15 20:50 | 35.77832 | 140.38864 | 143 ft | 4 kts | 319° |
| 2026-04-15 20:51 | 35.77814 | 140.38887 | 143 ft | 4 kts | 300° |
| 2026-04-15 20:51 | 35.77808 | 140.38914 | 143 ft | 3 kts | 243° |
| 2026-04-15 20:51 | 35.77811 | 140.38922 | 143 ft | 0 kts | 239° |
| 2026-04-15 20:57 | 35.77811 | 140.38921 | 143 ft | 1 kts | 239° |
| 2026-04-15 20:58 | 35.77788 | 140.38874 | 143 ft | 10 kts | 237° |
| 2026-04-15 20:58 | 35.77788 | 140.38793 | 143 ft | 11 kts | 306° |
| 2026-04-15 20:58 | 35.77856 | 140.38736 | 143 ft | 13 kts | 331° |
| 2026-04-15 20:58 | 35.77943 | 140.38680 | 143 ft | 15 kts | 352° |
| 2026-04-15 20:59 | 35.78035 | 140.38749 | 143 ft | 17 kts | 43° |
| 2026-04-15 20:59 | 35.78076 | 140.38877 | 143 ft | 18 kts | 110° |
| 2026-04-15 20:59 | 35.78027 | 140.39025 | 143 ft | 19 kts | 131° |
| 2026-04-15 20:59 | 35.77947 | 140.39087 | 143 ft | 10 kts | 148° |
| 2026-04-15 21:00 | 35.77900 | 140.39148 | 143 ft | 11 kts | 118° |
| 2026-04-15 21:00 | 35.77858 | 140.39251 | 144 ft | 15 kts | 115° |
| 2026-04-15 21:00 | 35.77811 | 140.39368 | 144 ft | 16 kts | 118° |
| 2026-04-15 21:00 | 35.77739 | 140.39440 | 144 ft | 12 kts | 130° |
| 2026-04-15 21:01 | 35.77735 | 140.39542 | 144 ft | 13 kts | 99° |
| 2026-04-15 21:01 | 35.77666 | 140.39613 | 144 ft | 14 kts | 149° |
| 2026-04-15 21:01 | 35.77561 | 140.39691 | 144 ft | 21 kts | 150° |
| 2026-04-15 21:01 | 35.77431 | 140.39783 | 144 ft | 22 kts | 149° |
| 2026-04-15 21:02 | 35.77314 | 140.39867 | 144 ft | 20 kts | 149° |
| 2026-04-15 21:02 | 35.77190 | 140.39957 | 144 ft | 22 kts | 149° |
| 2026-04-15 21:02 | 35.77103 | 140.40003 | 144 ft | 13 kts | 181° |
| 2026-04-15 21:02 | 35.77013 | 140.39966 | 144 ft | 14 kts | 202° |
| 2026-04-15 21:03 | 35.76917 | 140.39911 | 144 ft | 16 kts | 205° |
| 2026-04-15 21:03 | 35.76803 | 140.39888 | 144 ft | 17 kts | 182° |
| 2026-04-15 21:03 | 35.76697 | 140.39824 | 144 ft | 18 kts | 220° |
| 2026-04-15 21:03 | 35.76592 | 140.39729 | 144 ft | 19 kts | 204° |
| 2026-04-15 21:04 | 35.76463 | 140.39662 | 144 ft | 21 kts | 204° |
| 2026-04-15 21:04 | 35.76325 | 140.39585 | 144 ft | 23 kts | 204° |
| 2026-04-15 21:04 | 35.76175 | 140.39502 | 144 ft | 24 kts | 204° |
| 2026-04-15 21:04 | 35.76031 | 140.39423 | 144 ft | 11 kts | 203° |
| 2026-04-15 21:05 | 35.75952 | 140.39381 | 144 ft | 15 kts | 203° |
| 2026-04-15 21:05 | 35.75837 | 140.39316 | 143 ft | 25 kts | 204° |
| 2026-04-15 21:05 | 35.75740 | 140.39214 | 143 ft | 19 kts | 242° |
| 2026-04-15 21:05 | 35.75654 | 140.39092 | 143 ft | 20 kts | 206° |
| 2026-04-15 21:06 | 35.75525 | 140.39023 | 144 ft | 21 kts | 205° |
| 2026-04-15 21:06 | 35.75390 | 140.38947 | 144 ft | 22 kts | 202° |
| 2026-04-15 21:06 | 35.75240 | 140.38863 | 144 ft | 26 kts | 204° |
| 2026-04-15 21:06 | 35.75123 | 140.38800 | 145 ft | 19 kts | 204° |
| 2026-04-15 21:07 | 35.75000 | 140.38846 | 145 ft | 19 kts | 148° |
| 2026-04-15 21:07 | 35.74881 | 140.38933 | 145 ft | 21 kts | 150° |
| 2026-04-15 21:07 | 35.74774 | 140.39011 | 145 ft | 16 kts | 148° |
| 2026-04-15 21:07 | 35.74685 | 140.39074 | 144 ft | 10 kts | 151° |
| 2026-04-15 21:08 | 35.74639 | 140.39107 | 144 ft | 0 kts | 149° |
| 2026-04-15 21:08 | 35.74637 | 140.39109 | 144 ft | 2 kts | 149° |
| 2026-04-15 21:08 | 35.74566 | 140.39160 | 144 ft | 18 kts | 149° |
| 2026-04-15 21:09 | 35.74458 | 140.39237 | 144 ft | 14 kts | 161° |
| 2026-04-15 21:09 | 35.74389 | 140.39157 | 143 ft | 16 kts | 240° |
| 2026-04-15 21:09 | 35.74382 | 140.39038 | 142 ft | 15 kts | 317° |
| 2026-04-15 21:09 | 35.74435 | 140.38998 | 142 ft | 8 kts | 329° |
| 2026-04-15 21:10 | 35.74489 | 140.38957 | 142 ft | 10 kts | 329° |
| 2026-04-15 21:10 | 35.74625 | 140.38857 | 145 ft | 49 kts | 329° |
| 2026-04-15 21:10 | 35.75107 | 140.38514 | 144 ft | 108 kts | 329° |
| 2026-04-15 21:10 | 35.75888 | 140.37948 | 147 ft | 152 kts | 329° |
| 2026-04-15 21:11 | 35.76858 | 140.37228 | 487 ft | 161 kts | 328° |
| 2026-04-15 21:11 | 35.77800 | 140.36576 | 1155 ft | 151 kts | 336° |
| 2026-04-15 21:11 | 35.78755 | 140.36034 | 1664 ft | 160 kts | 339° |
| 2026-04-15 21:11 | 35.79836 | 140.35428 | 1879 ft | 183 kts | 339° |
| 2026-04-15 21:12 | 35.81026 | 140.34618 | 2124 ft | 209 kts | 332° |
| 2026-04-15 21:12 | 35.82330 | 140.33615 | 2496 ft | 233 kts | 332° |
| 2026-04-15 21:12 | 35.83741 | 140.32554 | 3203 ft | 241 kts | 332° |
| 2026-04-15 21:12 | 35.85171 | 140.31482 | 4166 ft | 241 kts | 332° |
| 2026-04-15 21:13 | 35.86608 | 140.30403 | 5047 ft | 243 kts | 332° |
| 2026-04-15 21:13 | 35.88063 | 140.29308 | 5872 ft | 247 kts | 331° |
| 2026-04-15 21:13 | 35.89549 | 140.28189 | 6635 ft | 254 kts | 330° |
| 2026-04-15 21:13 | 35.91072 | 140.27040 | 6936 ft | 258 kts | 330° |
| 2026-04-15 21:14 | 35.92600 | 140.25883 | 7004 ft | 258 kts | 330° |
| 2026-04-15 21:14 | 35.94130 | 140.24726 | 7014 ft | 258 kts | 330° |
| 2026-04-15 21:14 | 35.95669 | 140.23594 | 7014 ft | 258 kts | 331° |
| 2026-04-15 21:14 | 35.97319 | 140.22777 | 7023 ft | 256 kts | 351° |
| 2026-04-15 21:15 | 35.99089 | 140.22830 | 7023 ft | 257 kts | 12° |
| 2026-04-15 21:15 | 36.00713 | 140.23759 | 7025 ft | 262 kts | 34° |
| 2026-04-15 21:15 | 36.02057 | 140.25310 | 7028 ft | 265 kts | 40° |
| 2026-04-15 21:15 | 36.03276 | 140.27029 | 7028 ft | 269 kts | 53° |
| 2026-04-15 21:16 | 36.04050 | 140.29159 | 7057 ft | 278 kts | 72° |
| 2026-04-15 21:16 | 36.04246 | 140.31576 | 7732 ft | 287 kts | 86° |
| 2026-04-15 21:16 | 36.04260 | 140.34052 | 8520 ft | 290 kts | 86° |
| 2026-04-15 21:16 | 36.04277 | 140.35709 | 9023 ft | 293 kts | 86° |
| 2026-04-15 21:17 | 36.04304 | 140.38243 | 9778 ft | 297 kts | 86° |
| 2026-04-15 21:17 | 36.04300 | 140.40822 | 10360 ft | 308 kts | 92° |
| 2026-04-15 21:17 | 36.03880 | 140.43517 | 10527 ft | 333 kts | 107° |
| 2026-04-15 21:17 | 36.02943 | 140.46232 | 10655 ft | 356 kts | 118° |
| 2026-04-15 21:18 | 36.01603 | 140.48914 | 10785 ft | 377 kts | 122° |
| 2026-04-15 21:18 | 36.00197 | 140.51700 | 11189 ft | 387 kts | 122° |
| 2026-04-15 21:18 | 35.98614 | 140.54405 | 11779 ft | 391 kts | 131° |
| 2026-04-15 21:18 | 35.96773 | 140.56894 | 12404 ft | 394 kts | 134° |
| 2026-04-15 21:19 | 35.94899 | 140.59381 | 13031 ft | 397 kts | 135° |
| 2026-04-15 21:19 | 35.93003 | 140.61879 | 13639 ft | 401 kts | 135° |
| 2026-04-15 21:19 | 35.91084 | 140.64394 | 14182 ft | 404 kts | 136° |
| 2026-04-15 21:19 | 35.89073 | 140.66825 | 14709 ft | 405 kts | 143° |
| 2026-04-15 21:20 | 35.86814 | 140.68797 | 15243 ft | 404 kts | 153° |
| 2026-04-15 21:20 | 35.84382 | 140.70541 | 15822 ft | 406 kts | 153° |
| 2026-04-15 21:20 | 35.81934 | 140.72302 | 16364 ft | 409 kts | 153° |
| 2026-04-15 21:20 | 35.79468 | 140.74078 | 16917 ft | 412 kts | 154° |
| 2026-04-15 21:21 | 35.76982 | 140.75867 | 17469 ft | 416 kts | 154° |
| 2026-04-15 21:21 | 35.75288 | 140.77085 | 17842 ft | 418 kts | 154° |
| 2026-04-15 21:21 | 35.71939 | 140.79475 | 18509 ft | 422 kts | 156° |
| 2026-04-15 21:21 | 35.69267 | 140.80931 | 18982 ft | 419 kts | 165° |
| 2026-04-15 21:22 | 35.66507 | 140.82130 | 19448 ft | 422 kts | 165° |
| 2026-04-15 21:22 | 35.63729 | 140.83332 | 19915 ft | 425 kts | 166° |
| 2026-04-15 21:22 | 35.60929 | 140.84539 | 20432 ft | 428 kts | 166° |
| 2026-04-15 21:22 | 35.58116 | 140.85750 | 20980 ft | 430 kts | 166° |
| 2026-04-15 21:23 | 35.55283 | 140.86971 | 21420 ft | 433 kts | 166° |
| 2026-04-15 21:23 | 35.52436 | 140.88197 | 21869 ft | 435 kts | 166° |
| 2026-04-15 21:23 | 35.49567 | 140.89432 | 22236 ft | 438 kts | 166° |
| 2026-04-15 21:23 | 35.46684 | 140.90676 | 22606 ft | 441 kts | 166° |
| 2026-04-15 21:24 | 35.43785 | 140.91931 | 22972 ft | 443 kts | 166° |
| 2026-04-15 21:24 | 35.40873 | 140.93188 | 23327 ft | 445 kts | 166° |
| 2026-04-15 21:24 | 35.37941 | 140.94452 | 23633 ft | 448 kts | 166° |
| 2026-04-15 21:24 | 35.34996 | 140.95718 | 23895 ft | 450 kts | 166° |
| 2026-04-15 21:25 | 35.32031 | 140.96990 | 24153 ft | 453 kts | 167° |
| 2026-04-15 21:25 | 35.29047 | 140.98273 | 24407 ft | 456 kts | 167° |
| 2026-04-15 21:25 | 35.26045 | 140.99560 | 24682 ft | 458 kts | 167° |
| 2026-04-15 21:25 | 35.23027 | 141.00846 | 24952 ft | 460 kts | 168° |
| 2026-04-15 21:26 | 35.19946 | 141.01833 | 25211 ft | 455 kts | 176° |
| 2026-04-15 21:26 | 35.16828 | 141.02263 | 25509 ft | 449 kts | 184° |
| 2026-04-15 21:26 | 35.13709 | 141.02493 | 25842 ft | 450 kts | 184° |
| 2026-04-15 21:26 | 35.10580 | 141.02732 | 26202 ft | 450 kts | 184° |
| 2026-04-15 21:27 | 35.07453 | 141.02978 | 26588 ft | 450 kts | 184° |
| 2026-04-15 21:27 | 35.04327 | 141.03232 | 26991 ft | 450 kts | 185° |
| 2026-04-15 21:27 | 35.01203 | 141.03486 | 27395 ft | 450 kts | 185° |
| 2026-04-15 21:27 | 34.98085 | 141.03737 | 27790 ft | 449 kts | 186° |
| 2026-04-15 21:28 | 34.94965 | 141.03983 | 28174 ft | 450 kts | 186° |
| 2026-04-15 21:28 | 34.91840 | 141.04225 | 28581 ft | 450 kts | 186° |
| 2026-04-15 21:28 | 34.88719 | 141.04470 | 29012 ft | 449 kts | 186° |
| 2026-04-15 21:28 | 34.85600 | 141.04712 | 29428 ft | 449 kts | 187° |
| 2026-04-15 21:29 | 34.82483 | 141.04953 | 29855 ft | 448 kts | 187° |
| 2026-04-15 21:29 | 34.79370 | 141.05194 | 30231 ft | 448 kts | 187° |
| 2026-04-15 21:29 | 34.76258 | 141.05437 | 30518 ft | 448 kts | 187° |
| 2026-04-15 21:29 | 34.73144 | 141.05678 | 30846 ft | 449 kts | 187° |
| 2026-04-15 21:30 | 34.70027 | 141.05918 | 31198 ft | 448 kts | 187° |
| 2026-04-15 21:30 | 34.66917 | 141.06159 | 31572 ft | 448 kts | 187° |
| 2026-04-15 21:30 | 34.63816 | 141.06349 | 31946 ft | 441 kts | 192° |
| 2026-04-15 21:30 | 34.60815 | 141.06022 | 32307 ft | 426 kts | 201° |
| 2026-04-15 21:31 | 34.55438 | 141.03665 | 32995 ft | 400 kts | 220° |
| 2026-04-15 21:31 | 34.53166 | 141.01800 | 33365 ft | 390 kts | 228° |
| 2026-04-15 21:32 | 34.49276 | 140.97360 | 34164 ft | 382 kts | 232° |
| 2026-04-15 21:32 | 34.47371 | 140.95128 | 34574 ft | 381 kts | 232° |
| 2026-04-15 21:32 | 34.45468 | 140.92907 | 34992 ft | 379 kts | 232° |
| 2026-04-15 21:32 | 34.43575 | 140.90703 | 35408 ft | 377 kts | 232° |
| 2026-04-15 21:33 | 34.41690 | 140.88510 | 35716 ft | 376 kts | 232° |
| 2026-04-15 21:33 | 34.37903 | 140.84092 | 35802 ft | 383 kts | 232° |
| 2026-04-15 21:34 | 34.34033 | 140.79565 | 35801 ft | 389 kts | 232° |
| 2026-04-15 21:34 | 34.30129 | 140.75031 | 35800 ft | 390 kts | 232° |
| 2026-04-15 21:35 | 34.26212 | 140.70498 | 35800 ft | 390 kts | 232° |
| 2026-04-15 21:35 | 34.22319 | 140.66006 | 35779 ft | 390 kts | 232° |
| 2026-04-15 21:36 | 34.18370 | 140.61444 | 35795 ft | 390 kts | 232° |
| 2026-04-15 21:36 | 34.14477 | 140.56944 | 35802 ft | 390 kts | 232° |
| 2026-04-15 21:37 | 34.10559 | 140.52419 | 35794 ft | 390 kts | 232° |
| 2026-04-15 21:37 | 34.06637 | 140.47896 | 35807 ft | 390 kts | 232° |
| 2026-04-15 21:38 | 34.02708 | 140.43383 | 35806 ft | 390 kts | 232° |
| 2026-04-15 21:38 | 33.98781 | 140.38875 | 35807 ft | 389 kts | 232° |
| 2026-04-15 21:39 | 33.94864 | 140.34374 | 35801 ft | 389 kts | 232° |
| 2026-04-15 21:39 | 33.90941 | 140.29871 | 35802 ft | 389 kts | 232° |
| 2026-04-15 21:40 | 33.87011 | 140.25381 | 35807 ft | 390 kts | 232° |
| 2026-04-15 21:40 | 33.82801 | 140.21188 | 35808 ft | 404 kts | 220° |
| 2026-04-15 21:41 | 33.77717 | 140.18091 | 35790 ft | 410 kts | 217° |
| 2026-04-15 21:41 | 33.72595 | 140.15056 | 35797 ft | 411 kts | 217° |
| 2026-04-15 21:42 | 33.67473 | 140.12010 | 35806 ft | 411 kts | 217° |
| 2026-04-15 21:42 | 33.62352 | 140.08962 | 35808 ft | 411 kts | 217° |
| 2026-04-15 21:43 | 33.57235 | 140.05918 | 35778 ft | 411 kts | 217° |
| 2026-04-15 21:43 | 33.52118 | 140.02871 | 35794 ft | 411 kts | 217° |
| 2026-04-15 21:44 | 33.46992 | 139.99831 | 35798 ft | 411 kts | 217° |
| 2026-04-15 21:44 | 33.41867 | 139.96800 | 35801 ft | 411 kts | 218° |
| 2026-04-15 21:45 | 33.36748 | 139.93767 | 35804 ft | 411 kts | 217° |
| 2026-04-15 21:45 | 33.31627 | 139.90738 | 35768 ft | 410 kts | 218° |
| 2026-04-15 21:46 | 33.26506 | 139.87717 | 35789 ft | 410 kts | 217° |
| 2026-04-15 21:46 | 33.21384 | 139.84700 | 35799 ft | 410 kts | 217° |
| 2026-04-15 21:47 | 33.16279 | 139.81673 | 35800 ft | 406 kts | 221° |
| 2026-04-15 21:47 | 33.13990 | 139.79810 | 35798 ft | 392 kts | 230° |
| 2026-04-15 21:47 | 33.12108 | 139.77542 | 35806 ft | 380 kts | 239° |
| 2026-04-15 21:48 | 33.09612 | 139.72181 | 35783 ft | 365 kts | 256° |
| 2026-04-15 21:48 | 33.08046 | 139.66430 | 35802 ft | 365 kts | 256° |
| 2026-04-15 21:49 | 33.06467 | 139.60719 | 35813 ft | 365 kts | 256° |
| 2026-04-15 21:49 | 33.04871 | 139.54972 | 35816 ft | 365 kts | 256° |
| 2026-04-15 21:50 | 33.03275 | 139.49220 | 35815 ft | 365 kts | 256° |
| 2026-04-15 21:50 | 33.01682 | 139.43468 | 35827 ft | 366 kts | 256° |
| 2026-04-15 21:51 | 33.00346 | 139.38651 | 35829 ft | 366 kts | 256° |
| 2026-04-15 21:51 | 32.98489 | 139.31968 | 35838 ft | 366 kts | 256° |
| 2026-04-15 21:52 | 32.97151 | 139.27151 | 35841 ft | 366 kts | 256° |
| 2026-04-15 21:52 | 32.95549 | 139.21404 | 35847 ft | 366 kts | 256° |
| 2026-04-15 21:53 | 32.93676 | 139.14737 | 35847 ft | 365 kts | 256° |
| 2026-04-15 21:53 | 32.92332 | 139.09929 | 35847 ft | 365 kts | 256° |
| 2026-04-15 21:54 | 32.90730 | 139.04195 | 35850 ft | 365 kts | 256° |
| 2026-04-15 21:54 | 32.89116 | 138.98467 | 35855 ft | 365 kts | 255° |
| 2026-04-15 21:55 | 32.87510 | 138.92785 | 35856 ft | 365 kts | 255° |
| 2026-04-15 21:55 | 32.85897 | 138.87065 | 35857 ft | 365 kts | 255° |
| 2026-04-15 21:56 | 32.84280 | 138.81350 | 35847 ft | 365 kts | 255° |
| 2026-04-15 21:56 | 32.82659 | 138.75640 | 35851 ft | 364 kts | 255° |
| 2026-04-15 21:57 | 32.80762 | 138.68969 | 35859 ft | 364 kts | 255° |
| 2026-04-15 21:57 | 32.79135 | 138.63263 | 35848 ft | 364 kts | 255° |
| 2026-04-15 21:58 | 32.77508 | 138.57560 | 35855 ft | 364 kts | 255° |
| 2026-04-15 21:58 | 32.75885 | 138.51855 | 35864 ft | 365 kts | 255° |
| 2026-04-15 21:59 | 32.74265 | 138.46185 | 35869 ft | 365 kts | 255° |
| 2026-04-15 21:59 | 32.72633 | 138.40479 | 35868 ft | 365 kts | 255° |
| 2026-04-15 22:00 | 32.70990 | 138.34784 | 35867 ft | 364 kts | 255° |
| 2026-04-15 22:00 | 32.69351 | 138.29090 | 35872 ft | 365 kts | 255° |
| 2026-04-15 22:01 | 32.67713 | 138.23395 | 35880 ft | 365 kts | 255° |
| 2026-04-15 22:01 | 32.66075 | 138.17695 | 35900 ft | 365 kts | 255° |
| 2026-04-15 22:02 | 32.64430 | 138.12007 | 35894 ft | 364 kts | 255° |
| 2026-04-15 22:02 | 32.62778 | 138.06329 | 35892 ft | 364 kts | 255° |
| 2026-04-15 22:03 | 32.61128 | 138.00658 | 35886 ft | 363 kts | 255° |
| 2026-04-15 22:03 | 32.59480 | 137.94993 | 35887 ft | 363 kts | 255° |
| 2026-04-15 22:04 | 32.58108 | 137.90290 | 35883 ft | 363 kts | 255° |
| 2026-04-15 22:04 | 32.56458 | 137.84639 | 35884 ft | 363 kts | 255° |
| 2026-04-15 22:05 | 32.54803 | 137.78989 | 35869 ft | 363 kts | 255° |
| 2026-04-15 22:05 | 32.53148 | 137.73340 | 35870 ft | 363 kts | 255° |
| 2026-04-15 22:06 | 32.51489 | 137.67691 | 35878 ft | 363 kts | 255° |
| 2026-04-15 22:06 | 32.49828 | 137.62034 | 35881 ft | 364 kts | 255° |
| 2026-04-15 22:07 | 32.48164 | 137.56376 | 35859 ft | 364 kts | 255° |
| 2026-04-15 22:07 | 32.46493 | 137.50716 | 35872 ft | 364 kts | 255° |
| 2026-04-15 22:08 | 32.44819 | 137.45055 | 35881 ft | 364 kts | 255° |
| 2026-04-15 22:08 | 32.43139 | 137.39398 | 35882 ft | 364 kts | 255° |
| 2026-04-15 22:09 | 32.41453 | 137.33744 | 35877 ft | 364 kts | 255° |
| 2026-04-15 22:09 | 32.39776 | 137.28085 | 35882 ft | 364 kts | 255° |
| 2026-04-15 22:10 | 32.38094 | 137.22428 | 35885 ft | 365 kts | 255° |
| 2026-04-15 22:10 | 32.36394 | 137.16771 | 35892 ft | 365 kts | 255° |
| 2026-04-15 22:11 | 32.34699 | 137.11106 | 35899 ft | 365 kts | 255° |
| 2026-04-15 22:11 | 32.32997 | 137.05443 | 35903 ft | 366 kts | 255° |
| 2026-04-15 22:12 | 32.31305 | 136.99816 | 35905 ft | 366 kts | 255° |
| 2026-04-15 22:12 | 32.29605 | 136.94153 | 35910 ft | 365 kts | 255° |
| 2026-04-15 22:13 | 32.27903 | 136.88496 | 35910 ft | 365 kts | 255° |
| 2026-04-15 22:13 | 32.26192 | 136.82852 | 35909 ft | 365 kts | 255° |
| 2026-04-15 22:14 | 32.24484 | 136.77210 | 35911 ft | 365 kts | 255° |
| 2026-04-15 22:14 | 32.22770 | 136.71562 | 35898 ft | 365 kts | 255° |
| 2026-04-15 22:15 | 32.21060 | 136.65914 | 35903 ft | 365 kts | 255° |
| 2026-04-15 22:15 | 32.19347 | 136.60265 | 35907 ft | 365 kts | 255° |
| 2026-04-15 22:16 | 32.17631 | 136.54618 | 35901 ft | 365 kts | 255° |
| 2026-04-15 22:16 | 32.15906 | 136.48977 | 35938 ft | 365 kts | 255° |
| 2026-04-15 22:17 | 32.14175 | 136.43343 | 35930 ft | 365 kts | 255° |
| 2026-04-15 22:17 | 32.12448 | 136.37717 | 35926 ft | 365 kts | 255° |
| 2026-04-15 22:18 | 32.10719 | 136.32093 | 35915 ft | 365 kts | 255° |
| 2026-04-15 22:18 | 32.08990 | 136.26470 | 35917 ft | 365 kts | 255° |
| 2026-04-15 22:19 | 32.07261 | 136.20850 | 35918 ft | 365 kts | 255° |
| 2026-04-15 22:19 | 32.05527 | 136.15231 | 35899 ft | 365 kts | 255° |
| 2026-04-15 22:20 | 32.03787 | 136.09616 | 35908 ft | 365 kts | 255° |
| 2026-04-15 22:20 | 32.02040 | 136.03991 | 35914 ft | 366 kts | 255° |
| 2026-04-15 22:21 | 32.00292 | 135.98362 | 35925 ft | 366 kts | 255° |
| 2026-04-15 22:21 | 31.98540 | 135.92732 | 35922 ft | 366 kts | 255° |
| 2026-04-15 22:22 | 31.96796 | 135.87108 | 35925 ft | 366 kts | 255° |
| 2026-04-15 22:22 | 31.95041 | 135.81487 | 35929 ft | 366 kts | 255° |
| 2026-04-15 22:23 | 31.93278 | 135.75874 | 35920 ft | 366 kts | 255° |
| 2026-04-15 22:23 | 31.91520 | 135.70258 | 35924 ft | 366 kts | 255° |
| 2026-04-15 22:24 | 31.89762 | 135.64639 | 35933 ft | 366 kts | 255° |
| 2026-04-15 22:24 | 31.87994 | 135.59024 | 35935 ft | 366 kts | 255° |
| 2026-04-15 22:25 | 31.86222 | 135.53408 | 35919 ft | 366 kts | 255° |
| 2026-04-15 22:25 | 31.84460 | 135.47824 | 35926 ft | 367 kts | 255° |
| 2026-04-15 22:26 | 31.82682 | 135.42208 | 35931 ft | 366 kts | 255° |
| 2026-04-15 22:26 | 31.80903 | 135.36587 | 35918 ft | 367 kts | 255° |
| 2026-04-15 22:27 | 31.79121 | 135.30961 | 35935 ft | 367 kts | 255° |
| 2026-04-15 22:27 | 31.77335 | 135.25334 | 35939 ft | 367 kts | 255° |
| 2026-04-15 22:28 | 31.75545 | 135.19714 | 35942 ft | 367 kts | 255° |
| 2026-04-15 22:28 | 31.73751 | 135.14088 | 35947 ft | 368 kts | 255° |
| 2026-04-15 22:29 | 31.71940 | 135.08471 | 35941 ft | 369 kts | 252° |
| 2026-04-15 22:29 | 31.69244 | 135.03229 | 35945 ft | 377 kts | 244° |
| 2026-04-15 22:30 | 31.66356 | 134.98086 | 35964 ft | 377 kts | 244° |
| 2026-04-15 22:30 | 31.63496 | 134.92983 | 35962 ft | 377 kts | 244° |
| 2026-04-15 22:31 | 31.60614 | 134.87837 | 35959 ft | 377 kts | 244° |
| 2026-04-15 22:31 | 31.57735 | 134.82698 | 35926 ft | 377 kts | 244° |
| 2026-04-15 22:32 | 31.54849 | 134.77564 | 35931 ft | 377 kts | 244° |
| 2026-04-15 22:32 | 31.51955 | 134.72430 | 35940 ft | 377 kts | 244° |
| 2026-04-15 22:33 | 31.49063 | 134.67292 | 35933 ft | 378 kts | 244° |
| 2026-04-15 22:33 | 31.46165 | 134.62151 | 35905 ft | 378 kts | 244° |
| 2026-04-15 22:34 | 31.43258 | 134.57006 | 35927 ft | 379 kts | 244° |
| 2026-04-15 22:34 | 31.40342 | 134.51865 | 35937 ft | 379 kts | 244° |
| 2026-04-15 22:35 | 31.37448 | 134.46760 | 35942 ft | 379 kts | 244° |
| 2026-04-15 22:35 | 31.34532 | 134.41617 | 35947 ft | 379 kts | 244° |
| 2026-04-15 22:36 | 31.31616 | 134.36469 | 35955 ft | 380 kts | 244° |
| 2026-04-15 22:36 | 31.28692 | 134.31326 | 35957 ft | 380 kts | 244° |
| 2026-04-15 22:37 | 31.25761 | 134.26191 | 35962 ft | 380 kts | 244° |
| 2026-04-15 22:37 | 31.22825 | 134.21059 | 35947 ft | 380 kts | 244° |
| 2026-04-15 22:38 | 31.19892 | 134.15924 | 35951 ft | 380 kts | 244° |
| 2026-04-15 22:38 | 31.16966 | 134.10780 | 35960 ft | 381 kts | 244° |
| 2026-04-15 22:39 | 31.14025 | 134.05631 | 35968 ft | 381 kts | 244° |
| 2026-04-15 22:39 | 31.11072 | 134.00491 | 35948 ft | 381 kts | 244° |
| 2026-04-15 22:40 | 31.08120 | 133.95345 | 35956 ft | 382 kts | 244° |
| 2026-04-15 22:40 | 31.05163 | 133.90203 | 35964 ft | 382 kts | 244° |
| 2026-04-15 22:41 | 31.00722 | 133.82489 | 35951 ft | 382 kts | 243° |
| 2026-04-15 22:41 | 30.97752 | 133.77345 | 35954 ft | 383 kts | 243° |
| 2026-04-15 22:42 | 30.94784 | 133.72189 | 35959 ft | 383 kts | 243° |
| 2026-04-15 22:42 | 30.91824 | 133.67075 | 35967 ft | 383 kts | 243° |
| 2026-04-15 22:43 | 30.88842 | 133.61925 | 35937 ft | 384 kts | 243° |
| 2026-04-15 22:43 | 30.85860 | 133.56768 | 35946 ft | 384 kts | 243° |
| 2026-04-15 22:44 | 30.82869 | 133.51607 | 35952 ft | 385 kts | 243° |
| 2026-04-15 22:44 | 30.79870 | 133.46444 | 35957 ft | 385 kts | 243° |
| 2026-04-15 22:45 | 30.76861 | 133.41287 | 35952 ft | 385 kts | 243° |
| 2026-04-15 22:45 | 30.73856 | 133.36125 | 35961 ft | 386 kts | 243° |
| 2026-04-15 22:46 | 30.70847 | 133.30963 | 35959 ft | 386 kts | 243° |
| 2026-04-15 22:46 | 30.67833 | 133.25800 | 35962 ft | 386 kts | 243° |
| 2026-04-15 22:47 | 30.64816 | 133.20639 | 35945 ft | 386 kts | 243° |
| 2026-04-15 22:47 | 30.61796 | 133.15474 | 35954 ft | 387 kts | 243° |
| 2026-04-15 22:48 | 30.58769 | 133.10308 | 35962 ft | 387 kts | 243° |
| 2026-04-15 22:48 | 30.55735 | 133.05141 | 35967 ft | 388 kts | 243° |
| 2026-04-15 22:49 | 30.52697 | 132.99971 | 35981 ft | 388 kts | 243° |
| 2026-04-15 22:49 | 30.49655 | 132.94794 | 35982 ft | 388 kts | 243° |
| 2026-04-15 22:50 | 30.46612 | 132.89622 | 35986 ft | 388 kts | 243° |
| 2026-04-15 22:50 | 30.44081 | 132.85328 | 35984 ft | 388 kts | 243° |
| 2026-04-15 22:51 | 30.40533 | 132.79330 | 35949 ft | 388 kts | 243° |
| 2026-04-15 22:51 | 30.37474 | 132.74165 | 35953 ft | 389 kts | 243° |
| 2026-04-15 22:52 | 30.34909 | 132.69842 | 35953 ft | 389 kts | 243° |
| 2026-04-15 22:52 | 30.31846 | 132.64674 | 35962 ft | 390 kts | 243° |
| 2026-04-15 22:53 | 30.28780 | 132.59499 | 35978 ft | 390 kts | 243° |
| 2026-04-15 22:53 | 30.25730 | 132.54360 | 35958 ft | 390 kts | 243° |
| 2026-04-15 22:54 | 30.22651 | 132.49188 | 35964 ft | 390 kts | 243° |
| 2026-04-15 22:54 | 30.19568 | 132.44024 | 35967 ft | 390 kts | 243° |
| 2026-04-15 22:55 | 30.16484 | 132.38860 | 35984 ft | 390 kts | 243° |
| 2026-04-15 22:55 | 30.13398 | 132.33698 | 35961 ft | 391 kts | 242° |
| 2026-04-15 22:56 | 30.10305 | 132.28535 | 35957 ft | 391 kts | 242° |
| 2026-04-15 22:56 | 30.07210 | 132.23370 | 35974 ft | 391 kts | 242° |
| 2026-04-15 22:57 | 30.04112 | 132.18209 | 35983 ft | 391 kts | 242° |
| 2026-04-15 22:57 | 30.01014 | 132.13049 | 35962 ft | 391 kts | 242° |
| 2026-04-15 22:58 | 29.97910 | 132.07890 | 35968 ft | 391 kts | 242° |
| 2026-04-15 22:58 | 29.94806 | 132.02735 | 35971 ft | 391 kts | 242° |
| 2026-04-15 22:59 | 29.91705 | 131.97580 | 35989 ft | 391 kts | 242° |
| 2026-04-15 22:59 | 29.88598 | 131.92431 | 35963 ft | 391 kts | 242° |
| 2026-04-15 23:00 | 29.85487 | 131.87286 | 35963 ft | 391 kts | 242° |
| 2026-04-15 23:00 | 29.82378 | 131.82141 | 35970 ft | 391 kts | 242° |
| 2026-04-15 23:01 | 29.78914 | 131.77240 | 35986 ft | 396 kts | 237° |
| 2026-04-15 23:01 | 29.75346 | 131.72414 | 35950 ft | 396 kts | 237° |
| 2026-04-15 23:02 | 29.71772 | 131.67588 | 35953 ft | 396 kts | 237° |
| 2026-04-15 23:02 | 29.68195 | 131.62760 | 35957 ft | 397 kts | 237° |
| 2026-04-15 23:03 | 29.64613 | 131.57933 | 35961 ft | 397 kts | 237° |
| 2026-04-15 23:03 | 29.61033 | 131.53106 | 35957 ft | 397 kts | 237° |
| 2026-04-15 23:04 | 29.57450 | 131.48276 | 35959 ft | 397 kts | 237° |
| 2026-04-15 23:04 | 29.53852 | 131.43450 | 35961 ft | 398 kts | 236° |
| 2026-04-15 23:05 | 29.50256 | 131.38624 | 35965 ft | 398 kts | 236° |
| 2026-04-15 23:05 | 29.46654 | 131.33795 | 35951 ft | 399 kts | 236° |
| 2026-04-15 23:06 | 29.43048 | 131.28956 | 35958 ft | 399 kts | 236° |
| 2026-04-15 23:06 | 29.39434 | 131.24118 | 35965 ft | 400 kts | 236° |
| 2026-04-15 23:07 | 29.35813 | 131.19280 | 35970 ft | 400 kts | 236° |
| 2026-04-15 23:07 | 29.32184 | 131.14445 | 35953 ft | 400 kts | 236° |
| 2026-04-15 23:08 | 29.28553 | 131.09603 | 35979 ft | 401 kts | 236° |
| 2026-04-15 23:08 | 29.24920 | 131.04762 | 35981 ft | 401 kts | 236° |
| 2026-04-15 23:09 | 29.21310 | 130.99961 | 35988 ft | 401 kts | 236° |
| 2026-04-15 23:09 | 29.17675 | 130.95132 | 35989 ft | 400 kts | 236° |
| 2026-04-15 23:10 | 29.14012 | 130.90269 | 35991 ft | 401 kts | 236° |
| 2026-04-15 23:10 | 29.10376 | 130.85446 | 35992 ft | 400 kts | 236° |
| 2026-04-15 23:11 | 29.06763 | 130.80667 | 35992 ft | 400 kts | 236° |
| 2026-04-15 23:11 | 29.03123 | 130.75863 | 35960 ft | 400 kts | 236° |
| 2026-04-15 23:12 | 28.99477 | 130.71052 | 35967 ft | 401 kts | 236° |
| 2026-04-15 23:12 | 28.95831 | 130.66241 | 35970 ft | 401 kts | 236° |
| 2026-04-15 23:13 | 28.92181 | 130.61425 | 35970 ft | 401 kts | 236° |
| 2026-04-15 23:13 | 28.88522 | 130.56607 | 35952 ft | 402 kts | 236° |
| 2026-04-15 23:14 | 28.84855 | 130.51790 | 35956 ft | 402 kts | 236° |
| 2026-04-15 23:14 | 28.81176 | 130.46975 | 35973 ft | 403 kts | 236° |
| 2026-04-15 23:15 | 28.77497 | 130.42153 | 35978 ft | 403 kts | 236° |
| 2026-04-15 23:15 | 28.73822 | 130.37327 | 35951 ft | 403 kts | 235° |
| 2026-04-15 23:16 | 28.70141 | 130.32510 | 35956 ft | 403 kts | 235° |
| 2026-04-15 23:16 | 28.66451 | 130.27695 | 35962 ft | 404 kts | 235° |
| 2026-04-15 23:17 | 28.62758 | 130.22878 | 35974 ft | 404 kts | 235° |
| 2026-04-15 23:17 | 28.59063 | 130.18064 | 35982 ft | 404 kts | 235° |
| 2026-04-15 23:18 | 28.55365 | 130.13243 | 35972 ft | 404 kts | 235° |
| 2026-04-15 23:18 | 28.51663 | 130.08426 | 35976 ft | 404 kts | 235° |
| 2026-04-15 23:19 | 28.47957 | 130.03617 | 35979 ft | 405 kts | 235° |
| 2026-04-15 23:19 | 28.44246 | 129.98810 | 35986 ft | 405 kts | 235° |
| 2026-04-15 23:20 | 28.40537 | 129.93998 | 35970 ft | 405 kts | 235° |
| 2026-04-15 23:20 | 28.36821 | 129.89182 | 35981 ft | 405 kts | 235° |
| 2026-04-15 23:21 | 28.33099 | 129.84371 | 35982 ft | 406 kts | 235° |
| 2026-04-15 23:21 | 28.29371 | 129.79562 | 35993 ft | 406 kts | 235° |
| 2026-04-15 23:22 | 28.25645 | 129.74753 | 35976 ft | 406 kts | 235° |
| 2026-04-15 23:22 | 28.21916 | 129.69941 | 35981 ft | 406 kts | 235° |
| 2026-04-15 23:23 | 28.18177 | 129.65133 | 35987 ft | 406 kts | 234° |
| 2026-04-15 23:23 | 28.14441 | 129.60327 | 35994 ft | 407 kts | 235° |
| 2026-04-15 23:24 | 28.10704 | 129.55518 | 35987 ft | 407 kts | 234° |
| 2026-04-15 23:24 | 28.06958 | 129.50712 | 35987 ft | 407 kts | 234° |
| 2026-04-15 23:25 | 28.03202 | 129.45909 | 35990 ft | 407 kts | 234° |
| 2026-04-15 23:25 | 27.99473 | 129.41137 | 35994 ft | 408 kts | 234° |
| 2026-04-15 23:26 | 27.95713 | 129.36336 | 35975 ft | 408 kts | 234° |
| 2026-04-15 23:26 | 27.91947 | 129.31530 | 35989 ft | 408 kts | 234° |
| 2026-04-15 23:27 | 27.88181 | 129.26718 | 35996 ft | 409 kts | 234° |
| 2026-04-15 23:27 | 27.84413 | 129.21912 | 35999 ft | 409 kts | 234° |
| 2026-04-15 23:28 | 27.80642 | 129.17108 | 35999 ft | 409 kts | 234° |
| 2026-04-15 23:28 | 27.76854 | 129.12301 | 35978 ft | 410 kts | 234° |
| 2026-04-15 23:29 | 27.73056 | 129.07498 | 35990 ft | 410 kts | 234° |
| 2026-04-15 23:29 | 27.69260 | 129.02687 | 36000 ft | 410 kts | 234° |
| 2026-04-15 23:30 | 27.65469 | 128.97876 | 36000 ft | 410 kts | 234° |
| 2026-04-15 23:30 | 27.61665 | 128.93067 | 36000 ft | 411 kts | 234° |
| 2026-04-15 23:31 | 27.57862 | 128.88269 | 36006 ft | 411 kts | 234° |
| 2026-04-15 23:31 | 27.54053 | 128.83467 | 35757 ft | 410 kts | 234° |
| 2026-04-15 23:32 | 27.52156 | 128.81077 | 35537 ft | 409 kts | 234° |
| 2026-04-15 23:32 | 27.50257 | 128.78687 | 35296 ft | 410 kts | 234° |
| 2026-04-15 23:32 | 27.48358 | 128.76294 | 35063 ft | 410 kts | 234° |
| 2026-04-15 23:32 | 27.46452 | 128.73895 | 34824 ft | 411 kts | 234° |
| 2026-04-15 23:33 | 27.44541 | 128.71493 | 34597 ft | 412 kts | 234° |
| 2026-04-15 23:33 | 27.42795 | 128.68962 | 34368 ft | 407 kts | 242° |
| 2026-04-15 23:33 | 27.41351 | 128.66229 | 34162 ft | 406 kts | 244° |
| 2026-04-15 23:33 | 27.39917 | 128.63487 | 33941 ft | 407 kts | 244° |
| 2026-04-15 23:34 | 27.38474 | 128.60740 | 33682 ft | 408 kts | 244° |
| 2026-04-15 23:34 | 27.37030 | 128.57995 | 33421 ft | 409 kts | 244° |
| 2026-04-15 23:34 | 27.35580 | 128.55240 | 33168 ft | 410 kts | 244° |
| 2026-04-15 23:36 | 27.27270 | 128.39483 | 31739 ft | 418 kts | 243° |
| 2026-04-15 23:36 | 27.25783 | 128.36671 | 31499 ft | 419 kts | 243° |
| 2026-04-15 23:36 | 27.24302 | 128.33883 | 31256 ft | 410 kts | 243° |
| 2026-04-15 23:36 | 27.22859 | 128.31175 | 31015 ft | 398 kts | 243° |
| 2026-04-15 23:37 | 27.21457 | 128.28541 | 30783 ft | 387 kts | 243° |
| 2026-04-15 23:37 | 27.20095 | 128.25976 | 30550 ft | 378 kts | 244° |
| 2026-04-15 23:37 | 27.18769 | 128.23473 | 30320 ft | 369 kts | 244° |
| 2026-04-15 23:37 | 27.17471 | 128.21023 | 30092 ft | 361 kts | 244° |
| 2026-04-15 23:38 | 27.16196 | 128.18622 | 29828 ft | 356 kts | 244° |
| 2026-04-15 23:38 | 27.14937 | 128.16246 | 29555 ft | 353 kts | 244° |
| 2026-04-15 23:38 | 27.13689 | 128.13892 | 28790 ft | 352 kts | 244° |
| 2026-04-15 23:38 | 27.12414 | 128.11472 | 27169 ft | 368 kts | 244° |
| 2026-04-15 23:39 | 27.11088 | 128.08950 | 25590 ft | 382 kts | 244° |
| 2026-04-15 23:39 | 27.09713 | 128.06349 | 24037 ft | 393 kts | 244° |
| 2026-04-15 23:39 | 27.08296 | 128.03686 | 22350 ft | 401 kts | 243° |
| 2026-04-15 23:39 | 27.06851 | 128.00982 | 20588 ft | 407 kts | 243° |
| 2026-04-15 23:40 | 27.05383 | 127.98246 | 18891 ft | 411 kts | 242° |
| 2026-04-15 23:40 | 27.03798 | 127.95566 | 17238 ft | 415 kts | 233° |
| 2026-04-15 23:40 | 27.01717 | 127.93317 | 15810 ft | 416 kts | 220° |
| 2026-04-15 23:40 | 26.99233 | 127.91664 | 14525 ft | 416 kts | 207° |
| 2026-04-15 23:41 | 26.96471 | 127.90709 | 13291 ft | 416 kts | 193° |
| 2026-04-15 23:41 | 26.93595 | 127.90494 | 12065 ft | 413 kts | 181° |
| 2026-04-15 23:41 | 26.90773 | 127.90586 | 11242 ft | 396 kts | 181° |
| 2026-04-15 23:41 | 26.88127 | 127.90676 | 10986 ft | 365 kts | 182° |
| 2026-04-15 23:42 | 26.85699 | 127.90757 | 10982 ft | 331 kts | 182° |
| 2026-04-15 23:42 | 26.83470 | 127.90830 | 10999 ft | 314 kts | 182° |
| 2026-04-15 23:42 | 26.81313 | 127.90893 | 10653 ft | 309 kts | 182° |
| 2026-04-15 23:42 | 26.79173 | 127.90950 | 10362 ft | 306 kts | 182° |
| 2026-04-15 23:43 | 26.77053 | 127.91004 | 10057 ft | 304 kts | 182° |
| 2026-04-15 23:43 | 26.74948 | 127.91059 | 9734 ft | 302 kts | 182° |
| 2026-04-15 23:43 | 26.72852 | 127.91117 | 9394 ft | 300 kts | 182° |
| 2026-04-15 23:43 | 26.70766 | 127.91179 | 9045 ft | 299 kts | 182° |
| 2026-04-15 23:44 | 26.68691 | 127.91242 | 8716 ft | 298 kts | 182° |
| 2026-04-15 23:44 | 26.66626 | 127.91303 | 8393 ft | 296 kts | 182° |
| 2026-04-15 23:44 | 26.64567 | 127.91364 | 8066 ft | 295 kts | 182° |
| 2026-04-15 23:44 | 26.62516 | 127.91423 | 7743 ft | 294 kts | 182° |
| 2026-04-15 23:45 | 26.60470 | 127.91483 | 7392 ft | 294 kts | 182° |
| 2026-04-15 23:45 | 26.58429 | 127.91544 | 7101 ft | 292 kts | 182° |
| 2026-04-15 23:45 | 26.56432 | 127.91602 | 6809 ft | 290 kts | 182° |
| 2026-04-15 23:45 | 26.54419 | 127.91661 | 6498 ft | 289 kts | 182° |
| 2026-04-15 23:46 | 26.52421 | 127.91720 | 6196 ft | 286 kts | 182° |
| 2026-04-15 23:46 | 26.50435 | 127.91779 | 5880 ft | 284 kts | 181° |
| 2026-04-15 23:46 | 26.48464 | 127.91839 | 5561 ft | 283 kts | 181° |
| 2026-04-15 23:46 | 26.46506 | 127.91899 | 5257 ft | 281 kts | 181° |
| 2026-04-15 23:47 | 26.44537 | 127.91959 | 4990 ft | 277 kts | 181° |
| 2026-04-15 23:47 | 26.42634 | 127.92017 | 4655 ft | 277 kts | 181° |
| 2026-04-15 23:47 | 26.40716 | 127.92001 | 4330 ft | 274 kts | 187° |
| 2026-04-15 23:47 | 26.38844 | 127.91657 | 4004 ft | 271 kts | 196° |
| 2026-04-15 23:48 | 26.37070 | 127.90987 | 3674 ft | 268 kts | 205° |
| 2026-04-15 23:48 | 26.35377 | 127.90118 | 3319 ft | 268 kts | 206° |
| 2026-04-15 23:48 | 26.33680 | 127.89247 | 3022 ft | 268 kts | 206° |
| 2026-04-15 23:48 | 26.31987 | 127.88382 | 2747 ft | 267 kts | 205° |
| 2026-04-15 23:49 | 26.30296 | 127.87520 | 2464 ft | 267 kts | 205° |
| 2026-04-15 23:49 | 26.28604 | 127.86657 | 2227 ft | 267 kts | 205° |
| 2026-04-15 23:49 | 26.26918 | 127.85797 | 2072 ft | 266 kts | 205° |
| 2026-04-15 23:49 | 26.25235 | 127.84939 | 2029 ft | 266 kts | 205° |
| 2026-04-15 23:50 | 26.23550 | 127.84077 | 2029 ft | 267 kts | 205° |
| 2026-04-15 23:50 | 26.21865 | 127.83215 | 2027 ft | 267 kts | 205° |
| 2026-04-15 23:50 | 26.20176 | 127.82353 | 2032 ft | 267 kts | 205° |
| 2026-04-15 23:51 | 26.16824 | 127.80645 | 2026 ft | 255 kts | 205° |
| 2026-04-15 23:51 | 26.15260 | 127.79852 | 2022 ft | 239 kts | 205° |
| 2026-04-15 23:51 | 26.13783 | 127.79103 | 2028 ft | 228 kts | 205° |
| 2026-04-15 23:51 | 26.12365 | 127.78381 | 2002 ft | 220 kts | 205° |
| 2026-04-15 23:52 | 26.11026 | 127.77698 | 2027 ft | 203 kts | 205° |
| 2026-04-15 23:52 | 26.09796 | 127.77070 | 2001 ft | 185 kts | 205° |
| 2026-04-15 23:52 | 26.08694 | 127.76509 | 1989 ft | 164 kts | 205° |
| 2026-04-15 23:52 | 26.07723 | 127.75949 | 2011 ft | 154 kts | 213° |
| 2026-04-15 23:53 | 26.06891 | 127.75235 | 2008 ft | 150 kts | 224° |
| 2026-04-15 23:53 | 26.06193 | 127.74384 | 2012 ft | 149 kts | 234° |
| 2026-04-15 23:53 | 26.05639 | 127.73425 | 2010 ft | 148 kts | 244° |
| 2026-04-15 23:53 | 26.05216 | 127.72302 | 2011 ft | 167 kts | 255° |
| 2026-04-15 23:54 | 26.04976 | 127.71012 | 2012 ft | 168 kts | 266° |
| 2026-04-15 23:54 | 26.04921 | 127.69715 | 2013 ft | 168 kts | 270° |
| 2026-04-15 23:54 | 26.04909 | 127.68437 | 2005 ft | 167 kts | 278° |
| 2026-04-15 23:54 | 26.05251 | 127.67218 | 2031 ft | 164 kts | 301° |
| 2026-04-15 23:55 | 26.05939 | 127.66273 | 2005 ft | 149 kts | 322° |
| 2026-04-15 23:55 | 26.06804 | 127.65712 | 2000 ft | 142 kts | 341° |
| 2026-04-15 23:55 | 26.07758 | 127.65505 | 1942 ft | 140 kts | 357° |
| 2026-04-15 23:55 | 26.08715 | 127.65435 | 1813 ft | 136 kts | 357° |
| 2026-04-15 23:56 | 26.09661 | 127.65364 | 1656 ft | 136 kts | 358° |
| 2026-04-15 23:56 | 26.10599 | 127.65292 | 1485 ft | 135 kts | 358° |
| 2026-04-15 23:56 | 26.11531 | 127.65219 | 1308 ft | 135 kts | 357° |
| 2026-04-15 23:56 | 26.12475 | 127.65146 | 1132 ft | 137 kts | 357° |
| 2026-04-15 23:57 | 26.13417 | 127.65072 | 966 ft | 135 kts | 358° |
| 2026-04-15 23:57 | 26.14352 | 127.64940 | 796 ft | 137 kts | 348° |
| 2026-04-15 23:57 | 26.15292 | 127.64769 | 648 ft | 138 kts | 358° |
| 2026-04-15 23:57 | 26.16249 | 127.64729 | 466 ft | 138 kts | 359° |
| 2026-04-15 23:58 | 26.17208 | 127.64696 | 284 ft | 138 kts | 360° |
| 2026-04-15 23:58 | 26.18159 | 127.64653 | 100 ft | 136 kts | 0° |
| 2026-04-15 23:58 | 26.19057 | 127.64609 | 22 ft | 116 kts | 358° |
| 2026-04-15 23:58 | 26.19703 | 127.64580 | 15 ft | 68 kts | 358° |
| 2026-04-15 23:59 | 26.20006 | 127.64569 | 16 ft | 22 kts | 358° |
| 2026-04-15 23:59 | 26.20161 | 127.64560 | 17 ft | 22 kts | 358° |
| 2026-04-15 23:59 | 26.20302 | 127.64623 | 17 ft | 23 kts | 27° |
| 2026-04-15 23:59 | 26.20420 | 127.64692 | 17 ft | 12 kts | 28° |
| 2026-04-16 00:00 | 26.20501 | 127.64739 | 17 ft | 14 kts | 25° |
| 2026-04-16 00:00 | 26.20578 | 127.64743 | 17 ft | 8 kts | 359° |
| 2026-04-16 00:00 | 26.20635 | 127.64749 | 17 ft | 8 kts | 38° |
| 2026-04-16 00:00 | 26.20651 | 127.64768 | 18 ft | 2 kts | 46° |
| 2026-04-16 00:01 | 26.20665 | 127.64784 | 18 ft | 6 kts | 47° |
| 2026-04-16 00:01 | 26.20691 | 127.64817 | 21 ft | 5 kts | 48° |
| 2026-04-16 00:01 | 26.20712 | 127.64842 | 21 ft | 4 kts | 47° |
| 2026-04-16 00:01 | 26.20720 | 127.64852 | 21 ft | 0 kts | 48° |
| 2026-04-16 00:02 | 26.20721 | 127.64853 | 21 ft | 0 kts | 47° |